sensor_id;sensor_type;location;lat;lon;timestamp;P1;durP1;ratioP1;P2;durP2;ratioP2
30677;SDS011;17437;47.188;8.896;2023-02-12T00:02:09;24.05;;;13.55;;
30677;SDS011;17437;47.188;8.896;2023-02-12T00:04:41;23.42;;;14.70;;
30677;SDS011;17437;47.188;8.896;2023-02-12T00:07:12;25.72;;;13.35;;
30677;SDS011;17437;47.188;8.896;2023-02-12T00:09:44;26.73;;;13.35;;
30677;SDS011;17437;47.188;8.896;2023-02-12T00:12:15;25.20;;;13.10;;
30677;SDS011;17437;47.188;8.896;2023-02-12T00:14:47;23.40;;;13.28;;
30677;SDS011;17437;47.188;8.896;2023-02-12T00:17:19;19.90;;;13.38;;
30677;SDS011;17437;47.188;8.896;2023-02-12T00:19:50;22.37;;;14.05;;
30677;SDS011;17437;47.188;8.896;2023-02-12T00:22:22;20.70;;;12.55;;
30677;SDS011;17437;47.188;8.896;2023-02-12T00:24:53;26.27;;;15.25;;
30677;SDS011;17437;47.188;8.896;2023-02-12T00:27:25;23.67;;;12.88;;
30677;SDS011;17437;47.188;8.896;2023-02-12T00:29:56;21.52;;;13.35;;
30677;SDS011;17437;47.188;8.896;2023-02-12T00:32:28;22.00;;;13.30;;
30677;SDS011;17437;47.188;8.896;2023-02-12T00:34:59;18.17;;;11.85;;
30677;SDS011;17437;47.188;8.896;2023-02-12T00:37:31;20.97;;;12.53;;
30677;SDS011;17437;47.188;8.896;2023-02-12T00:40:03;19.25;;;12.80;;
30677;SDS011;17437;47.188;8.896;2023-02-12T00:42:35;23.20;;;14.07;;
30677;SDS011;17437;47.188;8.896;2023-02-12T00:45:08;22.77;;;13.55;;
30677;SDS011;17437;47.188;8.896;2023-02-12T00:47:39;22.80;;;15.03;;
30677;SDS011;17437;47.188;8.896;2023-02-12T00:50:10;23.30;;;13.20;;
30677;SDS011;17437;47.188;8.896;2023-02-12T00:52:42;21.73;;;13.38;;
30677;SDS011;17437;47.188;8.896;2023-02-12T00:55:14;26.35;;;16.37;;
30677;SDS011;17437;47.188;8.896;2023-02-12T00:57:45;23.22;;;15.63;;
30677;SDS011;17437;47.188;8.896;2023-02-12T01:00:17;23.47;;;14.15;;
30677;SDS011;17437;47.188;8.896;2023-02-12T01:02:48;26.52;;;14.53;;
30677;SDS011;17437;47.188;8.896;2023-02-12T01:05:20;24.45;;;14.85;;
30677;SDS011;17437;47.188;8.896;2023-02-12T01:07:52;29.75;;;15.60;;
30677;SDS011;17437;47.188;8.896;2023-02-12T01:10:24;19.23;;;13.38;;
30677;SDS011;17437;47.188;8.896;2023-02-12T01:12:56;21.27;;;12.07;;
30677;SDS011;17437;47.188;8.896;2023-02-12T01:15:27;21.87;;;14.65;;
30677;SDS011;17437;47.188;8.896;2023-02-12T01:17:58;20.97;;;14.00;;
30677;SDS011;17437;47.188;8.896;2023-02-12T01:20:30;22.50;;;12.95;;
30677;SDS011;17437;47.188;8.896;2023-02-12T01:23:02;20.43;;;12.82;;
30677;SDS011;17437;47.188;8.896;2023-02-12T01:25:34;20.40;;;12.15;;
30677;SDS011;17437;47.188;8.896;2023-02-12T01:28:08;20.30;;;12.65;;
30677;SDS011;17437;47.188;8.896;2023-02-12T01:30:40;26.25;;;13.48;;
30677;SDS011;17437;47.188;8.896;2023-02-12T01:33:12;23.73;;;12.68;;
30677;SDS011;17437;47.188;8.896;2023-02-12T01:35:43;19.50;;;12.33;;
30677;SDS011;17437;47.188;8.896;2023-02-12T01:38:15;22.05;;;13.83;;
30677;SDS011;17437;47.188;8.896;2023-02-12T01:40:46;23.27;;;15.60;;
30677;SDS011;17437;47.188;8.896;2023-02-12T01:43:18;21.00;;;14.13;;
30677;SDS011;17437;47.188;8.896;2023-02-12T01:45:50;28.98;;;16.65;;
30677;SDS011;17437;47.188;8.896;2023-02-12T01:48:23;19.37;;;13.43;;
30677;SDS011;17437;47.188;8.896;2023-02-12T01:50:56;25.23;;;15.08;;
30677;SDS011;17437;47.188;8.896;2023-02-12T01:53:32;22.98;;;13.70;;
30677;SDS011;17437;47.188;8.896;2023-02-12T01:56:05;24.25;;;14.13;;
30677;SDS011;17437;47.188;8.896;2023-02-12T01:58:39;26.23;;;15.60;;
30677;SDS011;17437;47.188;8.896;2023-02-12T02:01:14;25.32;;;13.43;;
30677;SDS011;17437;47.188;8.896;2023-02-12T02:03:48;24.90;;;15.23;;
30677;SDS011;17437;47.188;8.896;2023-02-12T02:06:23;22.90;;;13.38;;
30677;SDS011;17437;47.188;8.896;2023-02-12T02:08:56;22.22;;;13.35;;
30677;SDS011;17437;47.188;8.896;2023-02-12T02:11:28;18.50;;;13.22;;
30677;SDS011;17437;47.188;8.896;2023-02-12T02:14:17;22.40;;;12.18;;
30677;SDS011;17437;47.188;8.896;2023-02-12T02:17:05;22.27;;;13.32;;
30677;SDS011;17437;47.188;8.896;2023-02-12T02:23:00;21.52;;;12.33;;
30677;SDS011;17437;47.188;8.896;2023-02-12T02:25:59;18.52;;;10.75;;
30677;SDS011;17437;47.188;8.896;2023-02-12T02:28:47;22.32;;;13.60;;
30677;SDS011;17437;47.188;8.896;2023-02-12T02:31:25;16.73;;;11.50;;
30677;SDS011;17437;47.188;8.896;2023-02-12T02:34:01;24.85;;;14.83;;
30677;SDS011;17437;47.188;8.896;2023-02-12T02:36:35;21.68;;;14.05;;
30677;SDS011;17437;47.188;8.896;2023-02-12T02:39:12;21.73;;;13.60;;
30677;SDS011;17437;47.188;8.896;2023-02-12T02:41:47;25.92;;;16.87;;
30677;SDS011;17437;47.188;8.896;2023-02-12T02:44:23;27.30;;;14.60;;
30677;SDS011;17437;47.188;8.896;2023-02-12T02:46:55;30.15;;;13.70;;
30677;SDS011;17437;47.188;8.896;2023-02-12T02:49:29;23.45;;;12.73;;
30677;SDS011;17437;47.188;8.896;2023-02-12T02:52:03;21.60;;;13.65;;
30677;SDS011;17437;47.188;8.896;2023-02-12T02:54:37;20.43;;;12.63;;
30677;SDS011;17437;47.188;8.896;2023-02-12T02:57:12;28.57;;;13.45;;
30677;SDS011;17437;47.188;8.896;2023-02-12T02:59:46;19.95;;;11.85;;
30677;SDS011;17437;47.188;8.896;2023-02-12T03:02:21;22.02;;;13.18;;
30677;SDS011;17437;47.188;8.896;2023-02-12T03:04:56;22.85;;;14.05;;
30677;SDS011;17437;47.188;8.896;2023-02-12T03:07:31;24.37;;;14.80;;
30677;SDS011;17437;47.188;8.896;2023-02-12T03:10:05;21.20;;;12.88;;
30677;SDS011;17437;47.188;8.896;2023-02-12T03:12:42;18.12;;;11.00;;
30677;SDS011;17437;47.188;8.896;2023-02-12T03:15:17;17.25;;;13.32;;
30677;SDS011;17437;47.188;8.896;2023-02-12T03:17:49;18.07;;;11.35;;
30677;SDS011;17437;47.188;8.896;2023-02-12T03:20:21;18.42;;;11.55;;
30677;SDS011;17437;47.188;8.896;2023-02-12T03:22:57;17.23;;;11.48;;
30677;SDS011;17437;47.188;8.896;2023-02-12T03:25:33;20.25;;;11.70;;
30677;SDS011;17437;47.188;8.896;2023-02-12T03:28:08;15.48;;;9.43;;
30677;SDS011;17437;47.188;8.896;2023-02-12T03:30:43;21.68;;;12.20;;
30677;SDS011;17437;47.188;8.896;2023-02-12T03:33:18;16.55;;;12.53;;
30677;SDS011;17437;47.188;8.896;2023-02-12T03:35:54;19.20;;;12.20;;
30677;SDS011;17437;47.188;8.896;2023-02-12T03:38:33;21.50;;;11.85;;
30677;SDS011;17437;47.188;8.896;2023-02-12T03:41:08;22.70;;;13.20;;
30677;SDS011;17437;47.188;8.896;2023-02-12T03:43:43;21.80;;;12.93;;
30677;SDS011;17437;47.188;8.896;2023-02-12T03:46:19;20.92;;;14.03;;
30677;SDS011;17437;47.188;8.896;2023-02-12T03:48:58;20.32;;;11.70;;
30677;SDS011;17437;47.188;8.896;2023-02-12T03:51:33;22.80;;;14.53;;
30677;SDS011;17437;47.188;8.896;2023-02-12T03:54:07;20.62;;;12.33;;
30677;SDS011;17437;47.188;8.896;2023-02-12T03:56:41;20.25;;;13.03;;
30677;SDS011;17437;47.188;8.896;2023-02-12T03:59:17;24.12;;;14.43;;
30677;SDS011;17437;47.188;8.896;2023-02-12T04:01:51;22.65;;;13.93;;
30677;SDS011;17437;47.188;8.896;2023-02-12T04:04:24;23.40;;;14.80;;
30677;SDS011;17437;47.188;8.896;2023-02-12T04:06:56;23.00;;;14.43;;
30677;SDS011;17437;47.188;8.896;2023-02-12T04:09:28;21.05;;;13.10;;
30677;SDS011;17437;47.188;8.896;2023-02-12T04:12:08;23.32;;;13.90;;
30677;SDS011;17437;47.188;8.896;2023-02-12T04:15:05;21.48;;;14.45;;
30677;SDS011;17437;47.188;8.896;2023-02-12T04:17:55;21.60;;;13.18;;
30677;SDS011;17437;47.188;8.896;2023-02-12T04:20:32;20.85;;;13.10;;
30677;SDS011;17437;47.188;8.896;2023-02-12T04:23:08;19.85;;;12.60;;
30677;SDS011;17437;47.188;8.896;2023-02-12T04:25:45;23.00;;;12.50;;
30677;SDS011;17437;47.188;8.896;2023-02-12T04:28:23;18.67;;;10.85;;
30677;SDS011;17437;47.188;8.896;2023-02-12T04:30:59;17.42;;;12.47;;
30677;SDS011;17437;47.188;8.896;2023-02-12T04:33:34;18.70;;;13.40;;
30677;SDS011;17437;47.188;8.896;2023-02-12T04:36:11;20.95;;;13.10;;
30677;SDS011;17437;47.188;8.896;2023-02-12T04:38:45;22.00;;;14.80;;
30677;SDS011;17437;47.188;8.896;2023-02-12T04:41:19;18.27;;;11.68;;
30677;SDS011;17437;47.188;8.896;2023-02-12T04:43:51;22.25;;;12.20;;
30677;SDS011;17437;47.188;8.896;2023-02-12T04:46:23;22.95;;;14.68;;
30677;SDS011;17437;47.188;8.896;2023-02-12T04:48:57;22.13;;;12.40;;
30677;SDS011;17437;47.188;8.896;2023-02-12T04:51:29;23.50;;;12.55;;
30677;SDS011;17437;47.188;8.896;2023-02-12T04:54:00;23.25;;;13.68;;
30677;SDS011;17437;47.188;8.896;2023-02-12T04:56:31;21.33;;;13.05;;
30677;SDS011;17437;47.188;8.896;2023-02-12T04:59:03;20.32;;;12.33;;
30677;SDS011;17437;47.188;8.896;2023-02-12T05:01:35;22.10;;;11.90;;
30677;SDS011;17437;47.188;8.896;2023-02-12T05:04:09;19.32;;;12.68;;
30677;SDS011;17437;47.188;8.896;2023-02-12T05:06:42;21.75;;;13.08;;
30677;SDS011;17437;47.188;8.896;2023-02-12T05:09:16;21.20;;;13.08;;
30677;SDS011;17437;47.188;8.896;2023-02-12T05:11:49;22.93;;;12.70;;
30677;SDS011;17437;47.188;8.896;2023-02-12T05:14:21;25.30;;;13.93;;
30677;SDS011;17437;47.188;8.896;2023-02-12T05:16:54;21.42;;;13.58;;
30677;SDS011;17437;47.188;8.896;2023-02-12T05:19:25;24.32;;;14.28;;
30677;SDS011;17437;47.188;8.896;2023-02-12T05:21:57;21.87;;;13.03;;
30677;SDS011;17437;47.188;8.896;2023-02-12T05:24:29;22.50;;;12.18;;
30677;SDS011;17437;47.188;8.896;2023-02-12T05:27:00;20.82;;;13.13;;
30677;SDS011;17437;47.188;8.896;2023-02-12T05:29:32;22.17;;;12.95;;
30677;SDS011;17437;47.188;8.896;2023-02-12T05:32:04;23.50;;;13.55;;
30677;SDS011;17437;47.188;8.896;2023-02-12T05:34:37;27.73;;;16.77;;
30677;SDS011;17437;47.188;8.896;2023-02-12T05:37:08;24.40;;;15.13;;
30677;SDS011;17437;47.188;8.896;2023-02-12T05:39:40;24.75;;;15.05;;
30677;SDS011;17437;47.188;8.896;2023-02-12T05:42:12;29.60;;;16.57;;
30677;SDS011;17437;47.188;8.896;2023-02-12T05:44:43;25.43;;;15.88;;
30677;SDS011;17437;47.188;8.896;2023-02-12T05:47:15;24.92;;;15.58;;
30677;SDS011;17437;47.188;8.896;2023-02-12T05:49:46;31.07;;;16.65;;
30677;SDS011;17437;47.188;8.896;2023-02-12T05:52:18;27.85;;;16.67;;
30677;SDS011;17437;47.188;8.896;2023-02-12T05:54:49;26.85;;;14.70;;
30677;SDS011;17437;47.188;8.896;2023-02-12T05:57:21;24.18;;;15.23;;
30677;SDS011;17437;47.188;8.896;2023-02-12T05:59:52;27.25;;;13.65;;
30677;SDS011;17437;47.188;8.896;2023-02-12T06:02:24;22.90;;;14.73;;
30677;SDS011;17437;47.188;8.896;2023-02-12T06:04:57;23.52;;;14.45;;
30677;SDS011;17437;47.188;8.896;2023-02-12T06:07:28;23.70;;;15.85;;
30677;SDS011;17437;47.188;8.896;2023-02-12T06:10:00;24.23;;;15.78;;
30677;SDS011;17437;47.188;8.896;2023-02-12T06:12:31;29.25;;;16.67;;
30677;SDS011;17437;47.188;8.896;2023-02-12T06:15:03;22.13;;;15.32;;
30677;SDS011;17437;47.188;8.896;2023-02-12T06:17:35;27.62;;;17.02;;
30677;SDS011;17437;47.188;8.896;2023-02-12T06:20:07;33.75;;;17.95;;
30677;SDS011;17437;47.188;8.896;2023-02-12T06:22:39;22.52;;;13.72;;
30677;SDS011;17437;47.188;8.896;2023-02-12T06:25:11;33.50;;;14.35;;
30677;SDS011;17437;47.188;8.896;2023-02-12T06:27:42;34.85;;;18.12;;
30677;SDS011;17437;47.188;8.896;2023-02-12T06:30:14;31.17;;;15.30;;
30677;SDS011;17437;47.188;8.896;2023-02-12T06:32:48;21.77;;;15.03;;
30677;SDS011;17437;47.188;8.896;2023-02-12T06:35:19;24.95;;;14.45;;
30677;SDS011;17437;47.188;8.896;2023-02-12T06:37:51;27.32;;;16.75;;
30677;SDS011;17437;47.188;8.896;2023-02-12T06:40:23;25.15;;;15.30;;
30677;SDS011;17437;47.188;8.896;2023-02-12T06:42:54;23.77;;;15.38;;
30677;SDS011;17437;47.188;8.896;2023-02-12T06:45:26;24.77;;;15.83;;
30677;SDS011;17437;47.188;8.896;2023-02-12T06:47:57;24.50;;;15.93;;
30677;SDS011;17437;47.188;8.896;2023-02-12T06:50:29;19.12;;;13.72;;
30677;SDS011;17437;47.188;8.896;2023-02-12T06:53:01;25.43;;;16.85;;
30677;SDS011;17437;47.188;8.896;2023-02-12T06:55:33;24.82;;;15.05;;
30677;SDS011;17437;47.188;8.896;2023-02-12T06:58:05;21.33;;;14.18;;
30677;SDS011;17437;47.188;8.896;2023-02-12T07:00:37;24.70;;;15.63;;
30677;SDS011;17437;47.188;8.896;2023-02-12T07:03:08;25.30;;;13.43;;
30677;SDS011;17437;47.188;8.896;2023-02-12T07:05:40;20.25;;;14.28;;
30677;SDS011;17437;47.188;8.896;2023-02-12T07:08:12;27.27;;;16.35;;
30677;SDS011;17437;47.188;8.896;2023-02-12T07:10:47;20.27;;;13.13;;
30677;SDS011;17437;47.188;8.896;2023-02-12T07:13:19;20.55;;;13.18;;
30677;SDS011;17437;47.188;8.896;2023-02-12T07:15:50;22.67;;;13.88;;
30677;SDS011;17437;47.188;8.896;2023-02-12T07:18:23;24.92;;;14.58;;
30677;SDS011;17437;47.188;8.896;2023-02-12T07:20:55;24.57;;;15.08;;
30677;SDS011;17437;47.188;8.896;2023-02-12T07:23:27;36.50;;;17.37;;
30677;SDS011;17437;47.188;8.896;2023-02-12T07:25:59;26.87;;;17.98;;
30677;SDS011;17437;47.188;8.896;2023-02-12T07:28:35;29.52;;;18.95;;
30677;SDS011;17437;47.188;8.896;2023-02-12T07:31:21;30.02;;;18.48;;
30677;SDS011;17437;47.188;8.896;2023-02-12T07:33:53;24.90;;;15.18;;
30677;SDS011;17437;47.188;8.896;2023-02-12T07:36:29;26.07;;;16.15;;
30677;SDS011;17437;47.188;8.896;2023-02-12T07:39:03;28.98;;;17.80;;
30677;SDS011;17437;47.188;8.896;2023-02-12T07:41:37;31.35;;;16.65;;
30677;SDS011;17437;47.188;8.896;2023-02-12T07:44:09;27.22;;;16.32;;
30677;SDS011;17437;47.188;8.896;2023-02-12T07:46:43;27.82;;;16.85;;
30677;SDS011;17437;47.188;8.896;2023-02-12T07:49:17;29.55;;;17.87;;
30677;SDS011;17437;47.188;8.896;2023-02-12T07:51:50;37.67;;;22.05;;
30677;SDS011;17437;47.188;8.896;2023-02-12T07:54:25;35.65;;;23.02;;
30677;SDS011;17437;47.188;8.896;2023-02-12T07:56:57;43.42;;;24.98;;
30677;SDS011;17437;47.188;8.896;2023-02-12T07:59:29;40.12;;;24.20;;
30677;SDS011;17437;47.188;8.896;2023-02-12T08:02:00;49.75;;;28.77;;
30677;SDS011;17437;47.188;8.896;2023-02-12T08:04:32;61.42;;;31.52;;
30677;SDS011;17437;47.188;8.896;2023-02-12T08:07:04;35.48;;;23.75;;
30677;SDS011;17437;47.188;8.896;2023-02-12T08:09:35;36.28;;;21.27;;
30677;SDS011;17437;47.188;8.896;2023-02-12T08:12:07;38.85;;;26.73;;
30677;SDS011;17437;47.188;8.896;2023-02-12T08:14:39;31.68;;;22.07;;
30677;SDS011;17437;47.188;8.896;2023-02-12T08:17:10;30.82;;;20.77;;
30677;SDS011;17437;47.188;8.896;2023-02-12T08:19:42;31.23;;;20.20;;
30677;SDS011;17437;47.188;8.896;2023-02-12T08:22:13;32.25;;;19.85;;
30677;SDS011;17437;47.188;8.896;2023-02-12T08:24:45;33.28;;;22.30;;
30677;SDS011;17437;47.188;8.896;2023-02-12T08:27:17;30.00;;;19.55;;
30677;SDS011;17437;47.188;8.896;2023-02-12T08:29:49;34.13;;;19.87;;
30677;SDS011;17437;47.188;8.896;2023-02-12T08:32:20;32.58;;;22.40;;
30677;SDS011;17437;47.188;8.896;2023-02-12T08:34:52;35.63;;;20.10;;
30677;SDS011;17437;47.188;8.896;2023-02-12T08:37:24;35.55;;;19.92;;
30677;SDS011;17437;47.188;8.896;2023-02-12T08:39:55;30.32;;;22.55;;
30677;SDS011;17437;47.188;8.896;2023-02-12T08:42:27;30.70;;;19.92;;
30677;SDS011;17437;47.188;8.896;2023-02-12T08:44:58;33.95;;;20.32;;
30677;SDS011;17437;47.188;8.896;2023-02-12T08:47:30;32.63;;;19.82;;
30677;SDS011;17437;47.188;8.896;2023-02-12T08:50:01;39.65;;;23.62;;
30677;SDS011;17437;47.188;8.896;2023-02-12T08:52:34;31.20;;;19.35;;
30677;SDS011;17437;47.188;8.896;2023-02-12T08:55:06;47.58;;;29.48;;
30677;SDS011;17437;47.188;8.896;2023-02-12T08:57:38;35.95;;;23.95;;
30677;SDS011;17437;47.188;8.896;2023-02-12T09:00:11;41.58;;;24.15;;
30677;SDS011;17437;47.188;8.896;2023-02-12T09:02:43;34.23;;;22.98;;
30677;SDS011;17437;47.188;8.896;2023-02-12T09:05:17;37.23;;;21.90;;
30677;SDS011;17437;47.188;8.896;2023-02-12T09:07:50;35.05;;;22.00;;
30677;SDS011;17437;47.188;8.896;2023-02-12T09:10:22;33.83;;;23.38;;
30677;SDS011;17437;47.188;8.896;2023-02-12T09:12:53;37.00;;;21.95;;
30677;SDS011;17437;47.188;8.896;2023-02-12T09:15:25;34.65;;;20.80;;
30677;SDS011;17437;47.188;8.896;2023-02-12T09:17:56;34.48;;;23.02;;
30677;SDS011;17437;47.188;8.896;2023-02-12T09:20:30;30.23;;;20.08;;
30677;SDS011;17437;47.188;8.896;2023-02-12T09:23:02;37.13;;;22.70;;
30677;SDS011;17437;47.188;8.896;2023-02-12T09:25:33;31.20;;;21.95;;
30677;SDS011;17437;47.188;8.896;2023-02-12T09:28:06;47.73;;;28.67;;
30677;SDS011;17437;47.188;8.896;2023-02-12T09:30:43;33.10;;;25.00;;
30677;SDS011;17437;47.188;8.896;2023-02-12T09:33:16;31.77;;;20.37;;
30677;SDS011;17437;47.188;8.896;2023-02-12T09:35:48;36.03;;;23.70;;
30677;SDS011;17437;47.188;8.896;2023-02-12T09:38:20;32.50;;;21.85;;
30677;SDS011;17437;47.188;8.896;2023-02-12T09:40:55;36.60;;;22.37;;
30677;SDS011;17437;47.188;8.896;2023-02-12T09:43:29;30.97;;;19.67;;
30677;SDS011;17437;47.188;8.896;2023-02-12T09:46:07;28.92;;;18.90;;
30677;SDS011;17437;47.188;8.896;2023-02-12T09:48:44;29.20;;;18.05;;
30677;SDS011;17437;47.188;8.896;2023-02-12T09:51:19;30.90;;;18.05;;
30677;SDS011;17437;47.188;8.896;2023-02-12T09:53:54;28.67;;;18.42;;
30677;SDS011;17437;47.188;8.896;2023-02-12T09:56:27;37.28;;;23.47;;
30677;SDS011;17437;47.188;8.896;2023-02-12T09:59:00;40.67;;;24.55;;
30677;SDS011;17437;47.188;8.896;2023-02-12T10:01:34;49.50;;;28.70;;
30677;SDS011;17437;47.188;8.896;2023-02-12T10:04:05;43.30;;;29.35;;
30677;SDS011;17437;47.188;8.896;2023-02-12T10:06:39;44.42;;;28.20;;
30677;SDS011;17437;47.188;8.896;2023-02-12T10:09:18;44.60;;;28.30;;
30677;SDS011;17437;47.188;8.896;2023-02-12T10:11:58;42.33;;;24.90;;
30677;SDS011;17437;47.188;8.896;2023-02-12T10:17:30;40.70;;;25.95;;
30677;SDS011;17437;47.188;8.896;2023-02-12T10:23:19;47.27;;;27.52;;
30677;SDS011;17437;47.188;8.896;2023-02-12T10:25:55;43.60;;;24.72;;
30677;SDS011;17437;47.188;8.896;2023-02-12T10:28:30;40.83;;;25.02;;
30677;SDS011;17437;47.188;8.896;2023-02-12T10:31:06;29.10;;;19.67;;
30677;SDS011;17437;47.188;8.896;2023-02-12T10:33:40;31.65;;;21.27;;
30677;SDS011;17437;47.188;8.896;2023-02-12T10:36:28;30.55;;;19.25;;
30677;SDS011;17437;47.188;8.896;2023-02-12T10:38:56;29.42;;;19.57;;
30677;SDS011;17437;47.188;8.896;2023-02-12T10:41:29;32.17;;;20.62;;
30677;SDS011;17437;47.188;8.896;2023-02-12T10:44:03;32.58;;;20.45;;
30677;SDS011;17437;47.188;8.896;2023-02-12T10:46:36;29.70;;;18.45;;
30677;SDS011;17437;47.188;8.896;2023-02-12T10:49:09;24.80;;;17.82;;
30677;SDS011;17437;47.188;8.896;2023-02-12T10:51:47;31.42;;;16.85;;
30677;SDS011;17437;47.188;8.896;2023-02-12T10:54:30;27.45;;;18.82;;
30677;SDS011;17437;47.188;8.896;2023-02-12T10:57:12;129.45;;;64.77;;
30677;SDS011;17437;47.188;8.896;2023-02-12T10:59:46;26.33;;;16.23;;
30677;SDS011;17437;47.188;8.896;2023-02-12T11:02:20;28.92;;;17.82;;
30677;SDS011;17437;47.188;8.896;2023-02-12T11:04:58;25.65;;;18.02;;
30677;SDS011;17437;47.188;8.896;2023-02-12T11:07:31;21.35;;;14.58;;
30677;SDS011;17437;47.188;8.896;2023-02-12T11:10:07;23.83;;;17.17;;
30677;SDS011;17437;47.188;8.896;2023-02-12T11:12:50;22.07;;;14.03;;
30677;SDS011;17437;47.188;8.896;2023-02-12T11:15:22;23.12;;;13.93;;
30677;SDS011;17437;47.188;8.896;2023-02-12T11:17:56;28.77;;;18.12;;
30677;SDS011;17437;47.188;8.896;2023-02-12T11:20:33;25.60;;;14.50;;
30677;SDS011;17437;47.188;8.896;2023-02-12T11:23:22;24.07;;;15.05;;
30677;SDS011;17437;47.188;8.896;2023-02-12T11:28:28;24.05;;;13.62;;
30677;SDS011;17437;47.188;8.896;2023-02-12T11:31:03;24.90;;;16.23;;
30677;SDS011;17437;47.188;8.896;2023-02-12T11:33:36;24.12;;;15.10;;
30677;SDS011;17437;47.188;8.896;2023-02-12T11:36:13;19.20;;;12.20;;
30677;SDS011;17437;47.188;8.896;2023-02-12T11:38:48;21.95;;;15.98;;
30677;SDS011;17437;47.188;8.896;2023-02-12T11:41:23;19.30;;;12.70;;
30677;SDS011;17437;47.188;8.896;2023-02-12T11:43:57;18.35;;;12.35;;
30677;SDS011;17437;47.188;8.896;2023-02-12T11:46:29;27.60;;;14.65;;
30677;SDS011;17437;47.188;8.896;2023-02-12T11:49:00;19.10;;;12.45;;
30677;SDS011;17437;47.188;8.896;2023-02-12T11:51:33;17.57;;;13.10;;
30677;SDS011;17437;47.188;8.896;2023-02-12T11:54:14;18.10;;;12.25;;
30677;SDS011;17437;47.188;8.896;2023-02-12T11:56:42;17.57;;;12.58;;
30677;SDS011;17437;47.188;8.896;2023-02-12T11:59:20;20.85;;;12.60;;
30677;SDS011;17437;47.188;8.896;2023-02-12T12:01:57;21.95;;;12.70;;
30677;SDS011;17437;47.188;8.896;2023-02-12T12:04:31;37.95;;;21.85;;
30677;SDS011;17437;47.188;8.896;2023-02-12T12:07:06;22.07;;;13.18;;
30677;SDS011;17437;47.188;8.896;2023-02-12T12:09:41;16.02;;;10.20;;
30677;SDS011;17437;47.188;8.896;2023-02-12T12:12:16;14.35;;;10.65;;
30677;SDS011;17437;47.188;8.896;2023-02-12T12:14:50;17.35;;;12.15;;
30677;SDS011;17437;47.188;8.896;2023-02-12T12:17:44;19.15;;;11.95;;
30677;SDS011;17437;47.188;8.896;2023-02-12T12:20:35;20.92;;;11.88;;
30677;SDS011;17437;47.188;8.896;2023-02-12T12:23:12;19.35;;;13.00;;
30677;SDS011;17437;47.188;8.896;2023-02-12T12:25:46;17.23;;;11.63;;
30677;SDS011;17437;47.188;8.896;2023-02-12T12:28:26;15.98;;;10.95;;
30677;SDS011;17437;47.188;8.896;2023-02-12T12:31:02;16.70;;;11.00;;
30677;SDS011;17437;47.188;8.896;2023-02-12T12:33:39;15.95;;;10.50;;
30677;SDS011;17437;47.188;8.896;2023-02-12T12:39:26;18.40;;;11.95;;
30677;SDS011;17437;47.188;8.896;2023-02-12T12:42:21;15.50;;;10.32;;
30677;SDS011;17437;47.188;8.896;2023-02-12T12:45:11;20.12;;;12.10;;
30677;SDS011;17437;47.188;8.896;2023-02-12T12:47:54;17.35;;;11.57;;
30677;SDS011;17437;47.188;8.896;2023-02-12T12:50:34;17.40;;;11.48;;
30677;SDS011;17437;47.188;8.896;2023-02-12T12:53:18;14.55;;;9.58;;
30677;SDS011;17437;47.188;8.896;2023-02-12T12:56:04;14.53;;;10.28;;
30677;SDS011;17437;47.188;8.896;2023-02-12T13:01:32;19.23;;;10.53;;
30677;SDS011;17437;47.188;8.896;2023-02-12T13:07:19;15.43;;;11.00;;
30677;SDS011;17437;47.188;8.896;2023-02-12T13:12:57;15.98;;;10.15;;
30677;SDS011;17437;47.188;8.896;2023-02-12T13:15:33;15.20;;;10.03;;
30677;SDS011;17437;47.188;8.896;2023-02-12T13:18:11;15.35;;;11.22;;
30677;SDS011;17437;47.188;8.896;2023-02-12T13:20:46;15.78;;;10.98;;
30677;SDS011;17437;47.188;8.896;2023-02-12T13:23:22;19.10;;;11.30;;
30677;SDS011;17437;47.188;8.896;2023-02-12T13:25:59;15.18;;;9.78;;
30677;SDS011;17437;47.188;8.896;2023-02-12T13:28:33;16.73;;;12.03;;
30677;SDS011;17437;47.188;8.896;2023-02-12T13:31:08;15.63;;;10.72;;
30677;SDS011;17437;47.188;8.896;2023-02-12T13:33:44;16.90;;;10.13;;
30677;SDS011;17437;47.188;8.896;2023-02-12T13:36:17;15.63;;;10.75;;
30677;SDS011;17437;47.188;8.896;2023-02-12T13:38:52;15.58;;;11.03;;
30677;SDS011;17437;47.188;8.896;2023-02-12T13:41:26;18.67;;;10.75;;
30677;SDS011;17437;47.188;8.896;2023-02-12T13:44:03;14.78;;;10.05;;
30677;SDS011;17437;47.188;8.896;2023-02-12T13:46:41;17.02;;;10.78;;
30677;SDS011;17437;47.188;8.896;2023-02-12T13:49:18;13.80;;;9.75;;
30677;SDS011;17437;47.188;8.896;2023-02-12T13:51:55;18.87;;;10.45;;
30677;SDS011;17437;47.188;8.896;2023-02-12T13:54:32;17.55;;;12.45;;
30677;SDS011;17437;47.188;8.896;2023-02-12T13:59:46;16.15;;;10.90;;
30677;SDS011;17437;47.188;8.896;2023-02-12T14:02:25;16.42;;;11.57;;
30677;SDS011;17437;47.188;8.896;2023-02-12T14:04:59;19.37;;;11.30;;
30677;SDS011;17437;47.188;8.896;2023-02-12T14:07:40;20.72;;;12.85;;
30677;SDS011;17437;47.188;8.896;2023-02-12T14:10:18;16.27;;;11.12;;
30677;SDS011;17437;47.188;8.896;2023-02-12T14:12:53;21.30;;;11.43;;
30677;SDS011;17437;47.188;8.896;2023-02-12T14:15:28;17.90;;;11.70;;
30677;SDS011;17437;47.188;8.896;2023-02-12T14:18:11;16.35;;;11.22;;
30677;SDS011;17437;47.188;8.896;2023-02-12T14:27:21;17.27;;;10.58;;
30677;SDS011;17437;47.188;8.896;2023-02-12T14:30:01;13.68;;;10.53;;
30677;SDS011;17437;47.188;8.896;2023-02-12T14:35:31;17.65;;;11.28;;
30677;SDS011;17437;47.188;8.896;2023-02-12T14:38:55;20.25;;;11.80;;
30677;SDS011;17437;47.188;8.896;2023-02-12T14:41:14;18.77;;;12.53;;
30677;SDS011;17437;47.188;8.896;2023-02-12T14:43:49;18.62;;;12.35;;
30677;SDS011;17437;47.188;8.896;2023-02-12T14:46:45;17.05;;;11.57;;
30677;SDS011;17437;47.188;8.896;2023-02-12T14:49:19;21.73;;;12.37;;
30677;SDS011;17437;47.188;8.896;2023-02-12T14:51:55;21.10;;;14.43;;
30677;SDS011;17437;47.188;8.896;2023-02-12T14:54:30;20.65;;;13.88;;
30677;SDS011;17437;47.188;8.896;2023-02-12T14:57:05;19.92;;;13.58;;
30677;SDS011;17437;47.188;8.896;2023-02-12T14:59:40;19.12;;;12.78;;
30677;SDS011;17437;47.188;8.896;2023-02-12T15:02:14;25.72;;;14.03;;
30677;SDS011;17437;47.188;8.896;2023-02-12T15:04:48;21.07;;;14.43;;
30677;SDS011;17437;47.188;8.896;2023-02-12T15:07:25;21.87;;;15.88;;
30677;SDS011;17437;47.188;8.896;2023-02-12T15:09:59;21.57;;;15.88;;
30677;SDS011;17437;47.188;8.896;2023-02-12T15:12:36;20.80;;;13.80;;
30677;SDS011;17437;47.188;8.896;2023-02-12T15:15:13;18.35;;;14.18;;
30677;SDS011;17437;47.188;8.896;2023-02-12T15:17:50;19.50;;;13.15;;
30677;SDS011;17437;47.188;8.896;2023-02-12T15:20:25;19.23;;;12.55;;
30677;SDS011;17437;47.188;8.896;2023-02-12T15:23:00;23.12;;;15.40;;
30677;SDS011;17437;47.188;8.896;2023-02-12T15:25:33;18.52;;;12.40;;
30677;SDS011;17437;47.188;8.896;2023-02-12T15:28:09;22.87;;;15.38;;
30677;SDS011;17437;47.188;8.896;2023-02-12T15:30:43;20.27;;;14.13;;
30677;SDS011;17437;47.188;8.896;2023-02-12T15:33:18;20.08;;;15.63;;
30677;SDS011;17437;47.188;8.896;2023-02-12T15:35:51;19.10;;;12.78;;
30677;SDS011;17437;47.188;8.896;2023-02-12T15:38:26;23.27;;;14.10;;
30677;SDS011;17437;47.188;8.896;2023-02-12T15:40:59;20.30;;;13.50;;